Time;durP1;ratioP1;P1;durP2;ratioP2;P2;SDS_P1;SDS_P2;PMS_P1;PMS_P2;Temp;Humidity;BMP_temperature;BMP_pressure;BME280_temperature;BME280_humidity;BME280_pressure;Samples;Min_cycle;Max_cycle;Signal;HPM_P1;HPM_P2
2021/03/25 00:02:15;;;;;;;14.45;6.45;;;;;;;;;;5035861;28;20075;-53
2021/03/25 00:04:41;;;;;;;12.55;5.97;;;;;;;;;;5035781;28;20068;-53
2021/03/25 00:07:07;;;;;;;15.07;6.55;;;;;;;;;;5034107;28;20474;-53
2021/03/25 00:09:42;;;;;;;14.55;6.68;;;;;;;;;;5035507;28;20102;-53
2021/03/25 00:12:09;;;;;;;18.23;6.88;;;;;;;;;;5035766;28;20041;-53
2021/03/25 00:14:35;;;;;;;14.52;7.25;;;;;;;;;;5035779;28;20056;-53
2021/03/25 00:17:01;;;;;;;13.43;6.82;;;;;;;;;;5034683;28;20036;-53
2021/03/25 00:19:27;;;;;;;22.00;7.57;;;;;;;;;;5035594;28;20033;-54
2021/03/25 00:21:53;;;;;;;14.20;6.32;;;;;;;;;;5035586;28;20022;-54
2021/03/25 00:24:19;;;;;;;20.02;6.20;;;;;;;;;;5035307;28;20033;-54
2021/03/25 00:26:45;;;;;;;14.02;6.50;;;;;;;;;;5035505;28;20017;-53
2021/03/25 00:29:12;;;;;;;12.18;5.97;;;;;;;;;;5035295;28;20025;-53
2021/03/25 00:31:39;;;;;;;17.65;6.80;;;;;;;;;;5035254;28;20105;-53
2021/03/25 00:34:05;;;;;;;18.27;7.45;;;;;;;;;;5035278;28;20543;-53
2021/03/25 00:36:31;;;;;;;12.25;6.00;;;;;;;;;;5034909;28;20028;-53
2021/03/25 00:38:58;;;;;;;14.15;5.32;;;;;;;;;;5035110;28;20029;-53
2021/03/25 00:41:24;;;;;;;13.57;5.38;;;;;;;;;;5035043;28;20356;-53
2021/03/25 00:43:50;;;;;;;11.95;6.03;;;;;;;;;;5035188;28;20119;-53
2021/03/25 00:46:16;;;;;;;9.20;4.65;;;;;;;;;;5035145;28;20447;-53
2021/03/25 00:48:42;;;;;;;9.63;5.28;;;;;;;;;;5034871;28;20022;-54
2021/03/25 00:51:08;;;;;;;11.35;5.00;;;;;;;;;;5034493;28;20348;-53
2021/03/25 00:53:36;;;;;;;13.05;5.18;;;;;;;;;;5035027;28;20021;-53
2021/03/25 00:56:03;;;;;;;12.25;5.43;;;;;;;;;;5034716;28;20522;-53
2021/03/25 00:58:29;;;;;;;12.23;5.03;;;;;;;;;;5034586;28;20033;-53
2021/03/25 01:00:55;;;;;;;13.27;5.80;;;;;;;;;;5034652;28;20029;-53
2021/03/25 01:03:22;;;;;;;16.33;5.80;;;;;;;;;;5034693;28;20032;-54
2021/03/25 01:05:49;;;;;;;14.18;5.72;;;;;;;;;;5034815;28;20025;-53
2021/03/25 01:08:15;;;;;;;14.77;5.75;;;;;;;;;;5034328;28;20017;-53
2021/03/25 01:10:44;;;;;;;9.25;5.07;;;;;;;;;;5034630;28;20367;-54
2021/03/25 01:13:13;;;;;;;12.10;4.97;;;;;;;;;;5034588;28;20028;-53
2021/03/25 01:15:39;;;;;;;12.93;5.45;;;;;;;;;;5034657;28;20031;-53
2021/03/25 01:18:06;;;;;;;13.52;5.72;;;;;;;;;;5033768;28;20025;-53
2021/03/25 01:20:33;;;;;;;14.05;5.72;;;;;;;;;;5034843;28;20053;-53
2021/03/25 01:22:59;;;;;;;17.40;5.90;;;;;;;;;;5034156;28;20459;-53
2021/03/25 01:25:29;;;;;;;15.35;5.65;;;;;;;;;;5034237;28;20038;-53
2021/03/25 01:27:59;;;;;;;12.05;5.90;;;;;;;;;;5033195;28;20022;-53
2021/03/25 01:30:26;;;;;;;15.30;5.43;;;;;;;;;;5034183;28;20079;-54
2021/03/25 01:32:52;;;;;;;17.95;5.32;;;;;;;;;;5033814;28;20053;-54
2021/03/25 01:35:19;;;;;;;19.88;5.95;;;;;;;;;;5034325;28;20018;-53
2021/03/25 01:37:45;;;;;;;14.50;5.13;;;;;;;;;;5033795;28;20025;-53
2021/03/25 01:40:13;;;;;;;10.88;5.13;;;;;;;;;;5034096;28;20053;-53
2021/03/25 01:42:40;;;;;;;11.65;5.40;;;;;;;;;;5033897;28;20459;-53
2021/03/25 01:45:24;;;;;;;11.52;5.43;;;;;;;;;;5033758;28;20088;-53
2021/03/25 01:47:50;;;;;;;15.00;5.15;;;;;;;;;;5033539;28;20458;-53
2021/03/25 01:50:16;;;;;;;11.57;5.32;;;;;;;;;;5033940;28;20032;-53
2021/03/25 01:53:01;;;;;;;10.27;5.43;;;;;;;;;;5033801;28;20083;-54
2021/03/25 01:55:42;;;;;;;17.95;5.78;;;;;;;;;;5033775;28;20029;-54
2021/03/25 01:58:20;;;;;;;9.85;5.50;;;;;;;;;;5033589;28;20189;-54
2021/03/25 02:01:04;;;;;;;15.57;5.70;;;;;;;;;;5033740;28;20022;-53
2021/03/25 02:03:44;;;;;;;9.98;4.63;;;;;;;;;;5033447;28;20037;-54
2021/03/25 02:06:15;;;;;;;9.95;6.20;;;;;;;;;;5033374;28;20033;-53
2021/03/25 02:08:56;;;;;;;10.90;5.25;;;;;;;;;;5033393;28;20045;-53
2021/03/25 02:11:22;;;;;;;13.95;6.32;;;;;;;;;;5033724;28;20033;-54
2021/03/25 02:13:48;;;;;;;15.18;5.80;;;;;;;;;;5033508;28;20502;-53
2021/03/25 02:16:23;;;;;;;12.55;5.65;;;;;;;;;;5033377;28;20029;-53
2021/03/25 02:18:49;;;;;;;10.43;5.25;;;;;;;;;;5033325;28;20025;-54
2021/03/25 02:21:34;;;;;;;17.20;5.68;;;;;;;;;;5033456;28;20101;-53
2021/03/25 02:24:18;;;;;;;17.35;5.57;;;;;;;;;;5033068;28;20435;-54
2021/03/25 02:26:53;;;;;;;13.68;5.05;;;;;;;;;;5033236;28;20332;-53
2021/03/25 02:29:39;;;;;;;11.40;6.20;;;;;;;;;;5033192;28;20023;-53
2021/03/25 02:32:08;;;;;;;11.00;5.85;;;;;;;;;;5033429;28;20040;-54
2021/03/25 02:34:36;;;;;;;10.57;5.07;;;;;;;;;;5033206;28;20512;-53
2021/03/25 02:37:26;;;;;;;10.15;4.90;;;;;;;;;;5032881;28;20028;-54
2021/03/25 02:39:55;;;;;;;16.65;5.50;;;;;;;;;;5028998;28;20041;-54
2021/03/25 02:42:24;;;;;;;16.95;6.38;;;;;;;;;;5032944;28;20021;-54
2021/03/25 02:44:53;;;;;;;11.07;5.55;;;;;;;;;;5033256;28;20128;-54
2021/03/25 02:47:20;;;;;;;12.40;5.65;;;;;;;;;;5032858;28;20088;-54
2021/03/25 02:49:58;;;;;;;13.73;5.90;;;;;;;;;;5032713;28;20029;-53
2021/03/25 02:52:24;;;;;;;14.70;5.03;;;;;;;;;;5031844;28;20060;-54
2021/03/25 02:54:51;;;;;;;10.57;4.80;;;;;;;;;;5041474;28;20017;-54
2021/03/25 02:57:20;;;;;;;10.88;5.25;;;;;;;;;;5052666;28;20029;-54
2021/03/25 02:59:47;;;;;;;12.48;5.13;;;;;;;;;;5052691;28;20439;-54
2021/03/25 03:02:20;;;;;;;11.13;5.93;;;;;;;;;;5052436;28;20037;-54
2021/03/25 03:04:47;;;;;;;7.88;4.25;;;;;;;;;;5051320;28;20082;-54
2021/03/25 03:07:25;;;;;;;12.98;4.97;;;;;;;;;;5052677;28;20306;-54
2021/03/25 03:09:53;;;;;;;13.85;5.35;;;;;;;;;;5052820;28;20103;-54
2021/03/25 03:12:27;;;;;;;12.10;6.03;;;;;;;;;;5052758;28;20364;-54
2021/03/25 03:14:58;;;;;;;11.73;5.25;;;;;;;;;;5052420;28;20048;-54
2021/03/25 03:17:32;;;;;;;10.38;5.55;;;;;;;;;;5052447;28;20032;-54
2021/03/25 03:20:08;;;;;;;10.23;5.00;;;;;;;;;;5052647;28;20029;-54
2021/03/25 03:22:35;;;;;;;13.07;5.82;;;;;;;;;;5052566;28;20028;-54
2021/03/25 03:25:05;;;;;;;14.13;5.13;;;;;;;;;;5052480;28;20101;-54
2021/03/25 03:27:33;;;;;;;18.92;6.30;;;;;;;;;;5052336;28;20100;-54
2021/03/25 03:29:59;;;;;;;10.50;5.10;;;;;;;;;;5052696;28;20063;-55
2021/03/25 03:32:28;;;;;;;13.23;5.82;;;;;;;;;;5052584;28;20402;-54
2021/03/25 03:34:59;;;;;;;14.20;6.43;;;;;;;;;;5052831;28;20032;-54
2021/03/25 03:37:38;;;;;;;12.00;5.47;;;;;;;;;;5052688;28;20025;-54
2021/03/25 03:40:09;;;;;;;12.73;6.18;;;;;;;;;;5052496;28;20032;-55
2021/03/25 03:42:37;;;;;;;15.85;5.05;;;;;;;;;;5052757;28;20029;-54
2021/03/25 03:45:03;;;;;;;15.10;5.30;;;;;;;;;;5052349;28;20094;-54
2021/03/25 03:47:30;;;;;;;10.80;5.38;;;;;;;;;;5052002;28;20021;-54
2021/03/25 03:50:02;;;;;;;10.85;5.22;;;;;;;;;;5052333;28;20025;-54
2021/03/25 03:52:30;;;;;;;9.85;5.05;;;;;;;;;;5050212;28;20154;-54
2021/03/25 03:54:57;;;;;;;15.50;5.93;;;;;;;;;;5049821;28;20032;-54
2021/03/25 03:57:29;;;;;;;10.35;5.53;;;;;;;;;;5055085;28;20090;-54
2021/03/25 03:59:59;;;;;;;15.88;6.03;;;;;;;;;;5046528;28;20127;-54
2021/03/25 04:02:40;;;;;;;12.15;5.20;;;;;;;;;;5036009;28;20057;-54
2021/03/25 04:05:06;;;;;;;;;;;;;;;;;;5046655;28;20029;-54
2021/03/25 04:07:34;;;;;;;13.77;5.90;;;;;;;;;;5055518;28;19911;-54
2021/03/25 04:10:05;;;;;;;16.70;5.43;;;;;;;;;;5055445;28;20025;-54
2021/03/25 04:12:34;;;;;;;14.95;6.05;;;;;;;;;;5054562;28;20366;-54
2021/03/25 04:15:16;;;;;;;11.98;5.88;;;;;;;;;;5055583;28;20450;-54
2021/03/25 04:17:44;;;;;;;10.88;6.07;;;;;;;;;;5039865;28;20075;-54
2021/03/25 04:20:14;;;;;;;12.45;4.68;;;;;;;;;;5035482;28;20037;-55
2021/03/25 04:22:43;;;;;;;11.23;4.75;;;;;;;;;;5035759;28;20097;-54
2021/03/25 04:25:21;;;;;;;14.90;6.43;;;;;;;;;;5035747;28;20405;-54
2021/03/25 04:27:53;;;;;;;13.98;5.20;;;;;;;;;;5035365;28;20033;-54
2021/03/25 04:30:25;;;;;;;17.98;5.97;;;;;;;;;;5035464;28;20029;-54
2021/03/25 04:32:51;;;;;;;13.43;6.97;;;;;;;;;;5035226;28;20447;-54
2021/03/25 04:35:18;;;;;;;11.25;6.07;;;;;;;;;;5035292;28;20037;-54
2021/03/25 04:37:44;;;;;;;16.35;5.75;;;;;;;;;;5035057;28;20026;-55
2021/03/25 04:40:13;;;;;;;19.48;6.13;;;;;;;;;;5035346;28;20030;-54
2021/03/25 04:42:40;;;;;;;14.23;5.60;;;;;;;;;;5035386;28;20065;-55
2021/03/25 04:45:18;;;;;;;13.93;5.85;;;;;;;;;;5037574;28;20037;-54
2021/03/25 04:47:46;;;;;;;13.32;5.13;;;;;;;;;;5042448;28;20045;-54
2021/03/25 04:50:23;;;;;;;11.52;5.72;;;;;;;;;;5038728;28;20036;-54
2021/03/25 04:52:49;;;;;;;12.52;5.80;;;;;;;;;;5038280;28;20442;-54
2021/03/25 04:55:15;;;;;;;9.05;5.15;;;;;;;;;;5054154;28;20029;-54
2021/03/25 04:57:43;;;;;;;10.70;5.93;;;;;;;;;;5054169;28;20041;-55
2021/03/25 05:00:14;;;;;;;16.35;5.80;;;;;;;;;;5053902;28;20028;-55
2021/03/25 05:02:41;;;;;;;18.38;5.78;;;;;;;;;;5039605;28;20512;-55
2021/03/25 05:05:07;;;;;;;11.55;4.95;;;;;;;;;;5034612;28;20034;-55
2021/03/25 05:07:35;;;;;;;10.93;5.70;;;;;;;;;;5052699;28;20029;-54
2021/03/25 05:10:03;;;;;;;14.05;6.00;;;;;;;;;;5039850;28;20104;-55
2021/03/25 05:12:30;;;;;;;12.70;5.93;;;;;;;;;;5034494;28;20109;-54
2021/03/25 05:15:22;;;;;;;15.57;6.35;;;;;;;;;;5038926;28;20021;-54
2021/03/25 05:18:13;;;;;;;15.05;6.63;;;;;;;;;;5043071;28;20315;-54
2021/03/25 05:20:41;;;;;;;22.33;5.90;;;;;;;;;;5044457;28;20037;-54
2021/03/25 05:23:26;;;;;;;15.52;5.53;;;;;;;;;;5042398;28;20044;-54
2021/03/25 05:25:54;;;;;;;22.15;6.10;;;;;;;;;;5034342;28;20332;-54
2021/03/25 05:28:26;;;;;;;16.92;5.43;;;;;;;;;;5034083;28;20036;-54
2021/03/25 05:30:52;;;;;;;11.88;6.13;;;;;;;;;;5034017;28;20079;-54
2021/03/25 05:33:20;;;;;;;12.18;5.97;;;;;;;;;;5034263;28;20025;-55
2021/03/25 05:35:49;;;;;;;11.00;5.30;;;;;;;;;;5033927;28;20075;-55
2021/03/25 05:38:15;;;;;;;15.63;5.75;;;;;;;;;;5033925;28;20109;-54
2021/03/25 05:40:48;;;;;;;12.25;5.18;;;;;;;;;;5033687;28;20117;-54
2021/03/25 05:43:22;;;;;;;11.23;5.32;;;;;;;;;;5033572;28;20038;-54
2021/03/25 05:45:57;;;;;;;12.68;5.38;;;;;;;;;;5034068;28;20029;-54
2021/03/25 05:48:28;;;;;;;14.52;6.38;;;;;;;;;;5053242;28;20036;-54
2021/03/25 05:50:58;;;;;;;13.88;5.95;;;;;;;;;;5053377;28;20025;-54
2021/03/25 05:53:24;;;;;;;17.15;6.40;;;;;;;;;;5053473;28;20020;-55
2021/03/25 05:56:03;;;;;;;12.25;6.88;;;;;;;;;;5053262;28;20033;-54
2021/03/25 05:58:34;;;;;;;18.50;5.82;;;;;;;;;;5033134;28;20075;-54
2021/03/25 06:01:08;;;;;;;12.68;5.35;;;;;;;;;;5031761;28;20052;-54
2021/03/25 06:03:35;;;;;;;10.60;5.25;;;;;;;;;;5034045;28;20025;-54
2021/03/25 06:06:01;;;;;;;12.10;4.45;;;;;;;;;;5033204;28;20359;-54
2021/03/25 06:08:30;;;;;;;18.35;5.63;;;;;;;;;;5031835;28;20021;-55
2021/03/25 06:10:59;;;;;;;12.82;5.35;;;;;;;;;;5033501;28;20108;-54
2021/03/25 06:13:33;;;;;;;13.55;4.82;;;;;;;;;;5033394;28;20454;-55
2021/03/25 06:16:17;;;;;;;15.63;5.55;;;;;;;;;;5033409;28;20057;-54
2021/03/25 06:18:57;;;;;;;9.02;4.47;;;;;;;;;;5032890;28;20029;-54
2021/03/25 06:21:43;;;;;;;12.73;5.00;;;;;;;;;;5033454;28;20022;-54
2021/03/25 06:24:35;;;;;;;12.63;4.60;;;;;;;;;;5031985;28;20046;-54
2021/03/25 06:27:18;;;;;;;9.63;4.40;;;;;;;;;;5032627;28;20108;-55
2021/03/25 06:29:46;;;;;;;10.38;4.68;;;;;;;;;;5033182;28;20040;-54
2021/03/25 06:32:20;;;;;;;12.43;5.43;;;;;;;;;;5033337;28;20117;-54
2021/03/25 06:34:46;;;;;;;15.27;5.70;;;;;;;;;;5033413;28;20072;-55
2021/03/25 06:37:18;;;;;;;9.23;4.25;;;;;;;;;;5040117;28;20393;-54
2021/03/25 06:39:44;;;;;;;11.43;5.47;;;;;;;;;;5052960;28;20024;-54
2021/03/25 06:42:19;;;;;;;10.50;4.63;;;;;;;;;;5053203;28;20021;-54
2021/03/25 06:44:51;;;;;;;10.40;5.00;;;;;;;;;;5051457;28;20036;-55
2021/03/25 06:47:20;;;;;;;13.13;4.93;;;;;;;;;;5048862;28;20087;-54
2021/03/25 06:49:49;;;;;;;12.45;5.57;;;;;;;;;;5052965;28;20444;-54
2021/03/25 06:52:29;;;;;;;15.70;6.00;;;;;;;;;;5053145;28;20025;-54
2021/03/25 06:54:57;;;;;;;14.38;5.13;;;;;;;;;;5033182;28;20057;-54
2021/03/25 06:57:24;;;;;;;9.32;4.90;;;;;;;;;;5032617;28;20390;-54
2021/03/25 06:59:54;;;;;;;14.70;5.78;;;;;;;;;;5033047;28;20029;-54
2021/03/25 07:02:26;;;;;;;11.98;5.20;;;;;;;;;;5032638;28;20037;-54
2021/03/25 07:04:53;;;;;;;15.40;6.43;;;;;;;;;;5032957;28;20073;-54
2021/03/25 07:07:25;;;;;;;14.30;7.10;;;;;;;;;;5032598;28;20025;-55
2021/03/25 07:09:51;;;;;;;14.85;4.72;;;;;;;;;;5033212;28;20112;-54
2021/03/25 07:12:20;;;;;;;10.57;5.03;;;;;;;;;;5033172;28;20171;-55
2021/03/25 07:14:47;;;;;;;14.93;4.80;;;;;;;;;;5032704;28;20134;-54
2021/03/25 07:17:14;;;;;;;12.32;5.55;;;;;;;;;;5032518;28;20075;-54
2021/03/25 07:19:44;;;;;;;12.52;4.93;;;;;;;;;;5032960;28;20036;-54
2021/03/25 07:22:22;;;;;;;17.48;5.80;;;;;;;;;;5032615;28;20022;-54
2021/03/25 07:24:49;;;;;;;17.95;5.18;;;;;;;;;;5032657;28;20048;-54
2021/03/25 07:27:35;;;;;;;16.85;6.45;;;;;;;;;;5035155;28;20339;-54
2021/03/25 07:30:03;;;;;;;13.65;5.43;;;;;;;;;;5045295;28;20033;-54
2021/03/25 07:32:36;;;;;;;14.68;5.50;;;;;;;;;;5056243;28;20106;-54
2021/03/25 07:35:14;;;;;;;10.77;5.40;;;;;;;;;;5056301;28;20028;-54
2021/03/25 07:37:43;;;;;;;13.43;6.60;;;;;;;;;;5055515;28;20060;-55
2021/03/25 07:40:21;;;;;;;17.45;5.93;;;;;;;;;;5056289;28;20028;-54
2021/03/25 07:42:47;;;;;;;15.07;6.07;;;;;;;;;;5055837;28;20363;-55
2021/03/25 07:45:30;;;;;;;13.82;5.43;;;;;;;;;;5056365;28;20323;-55
2021/03/25 07:48:15;;;;;;;23.10;6.95;;;;;;;;;;5055668;28;20063;-54
2021/03/25 07:50:42;;;;;;;17.58;6.47;;;;;;;;;;5056028;28;20040;-55
2021/03/25 07:53:17;;;;;;;18.05;6.70;;;;;;;;;;5055921;28;20025;-54
2021/03/25 07:55:43;;;;;;;20.85;7.53;;;;;;;;;;5056452;28;20032;-54
2021/03/25 07:58:16;;;;;;;14.77;6.22;;;;;;;;;;5055629;28;20021;-54
2021/03/25 08:00:42;;;;;;;15.65;6.68;;;;;;;;;;5055616;28;20025;-54
2021/03/25 08:03:11;;;;;;;11.98;4.82;;;;;;;;;;5055301;28;20078;-54
2021/03/25 08:05:37;;;;;;;17.45;5.15;;;;;;;;;;5042673;28;20038;-54
2021/03/25 08:08:06;;;;;;;9.60;4.63;;;;;;;;;;5035428;28;20025;-54
2021/03/25 08:10:40;;;;;;;16.70;6.22;;;;;;;;;;5043649;28;20029;-54
2021/03/25 08:13:12;;;;;;;15.13;7.18;;;;;;;;;;5037352;28;20028;-54
2021/03/25 08:15:45;;;;;;;10.27;4.53;;;;;;;;;;5045078;28;20029;-54
2021/03/25 08:18:20;;;;;;;1.83;1.52;;;;;;;;;;5034880;28;20455;-54
2021/03/25 08:20:53;;;;;;;17.33;6.57;;;;;;;;;;5035608;28;20059;-54
2021/03/25 08:23:18;;;;;;;25.40;5.80;;;;;;;;;;5035254;28;20018;-54
2021/03/25 08:25:47;;;;;;;15.38;5.90;;;;;;;;;;5038590;28;20047;-54
2021/03/25 08:28:24;;;;;;;10.07;4.55;;;;;;;;;;5041462;28;20397;-54
2021/03/25 08:31:09;;;;;;;4.25;0.98;;;;;;;;;;5055809;28;20079;-54
2021/03/25 08:33:41;;;;;;;6.72;3.03;;;;;;;;;;5055159;28;20028;-54
2021/03/25 08:36:13;;;;;;;10.70;3.47;;;;;;;;;;5052996;28;20475;-54
2021/03/25 08:38:44;;;;;;;6.93;3.42;;;;;;;;;;5048888;28;20432;-54
2021/03/25 08:41:31;;;;;;;12.25;4.20;;;;;;;;;;5034489;28;20029;-54
2021/03/25 08:44:16;;;;;;;3.72;2.03;;;;;;;;;;5043089;28;20037;-54
2021/03/25 08:46:45;;;;;;;10.88;4.43;;;;;;;;;;5045684;28;20025;-54
2021/03/25 08:49:17;;;;;;;7.25;3.17;;;;;;;;;;5037556;28;20112;-54
2021/03/25 08:51:43;;;;;;;8.30;1.63;;;;;;;;;;5043738;28;20031;-54
2021/03/25 08:54:18;;;;;;;15.15;5.32;;;;;;;;;;5040427;28;20029;-54
2021/03/25 08:56:47;;;;;;;12.60;4.38;;;;;;;;;;5034296;28;20444;-54
2021/03/25 08:59:25;;;;;;;17.27;6.15;;;;;;;;;;5045503;28;20757;-54
2021/03/25 09:01:55;;;;;;;7.00;3.25;;;;;;;;;;5054708;28;20040;-54
2021/03/25 09:04:23;;;;;;;6.13;4.05;;;;;;;;;;5058608;28;20035;-53
2021/03/25 09:06:51;;;;;;;4.32;1.98;;;;;;;;;;5074324;28;20052;-54
2021/03/25 09:09:26;;;;;;;10.40;3.05;;;;;;;;;;5053828;28;20029;-54
2021/03/25 09:11:52;;;;;;;12.70;4.35;;;;;;;;;;5044187;28;20029;-54
2021/03/25 09:14:21;;;;;;;6.85;3.22;;;;;;;;;;5054519;28;20108;-54
2021/03/25 09:16:48;;;;;;;11.13;5.40;;;;;;;;;;5054674;28;20036;-54
2021/03/25 09:19:20;;;;;;;12.30;4.85;;;;;;;;;;5040901;28;20025;-54
2021/03/25 09:21:47;;;;;;;10.70;3.40;;;;;;;;;;5043597;28;20494;-54
2021/03/25 09:24:13;;;;;;;9.45;5.28;;;;;;;;;;5033671;28;20118;-54
2021/03/25 09:26:47;;;;;;;9.70;4.75;;;;;;;;;;5034258;28;20113;-54
2021/03/25 09:29:14;;;;;;;2.75;1.70;;;;;;;;;;5034222;28;20036;-54
2021/03/25 09:31:40;;;;;;;12.98;5.45;;;;;;;;;;5050492;28;20025;-54
2021/03/25 09:34:11;;;;;;;13.70;6.13;;;;;;;;;;5054475;28;20103;-54
2021/03/25 09:36:47;;;;;;;3.22;1.77;;;;;;;;;;5053938;28;20401;-54
2021/03/25 09:39:18;;;;;;;6.68;3.20;;;;;;;;;;5053757;28;20017;-54
2021/03/25 09:41:44;;;;;;;0.75;0.68;;;;;;;;;;5052116;28;20473;-54
2021/03/25 09:44:10;;;;;;;9.73;4.05;;;;;;;;;;5053017;28;20064;-54
2021/03/25 09:46:47;;;;;;;12.18;4.75;;;;;;;;;;5044182;28;20022;-54
2021/03/25 09:49:19;;;;;;;9.30;2.80;;;;;;;;;;5042955;28;20040;-54
2021/03/25 09:51:47;;;;;;;2.25;1.27;;;;;;;;;;5049166;28;20029;-54
2021/03/25 09:54:21;;;;;;;11.23;3.95;;;;;;;;;;5038457;28;20056;-54
2021/03/25 09:56:47;;;;;;;15.98;4.85;;;;;;;;;;5041415;28;20025;-54
2021/03/25 09:59:32;;;;;;;6.25;2.78;;;;;;;;;;5042860;28;20036;-54
2021/03/25 10:01:58;;;;;;;11.60;4.43;;;;;;;;;;5041858;28;20033;-54
2021/03/25 10:04:26;;;;;;;8.98;4.22;;;;;;;;;;5046410;28;20128;-54
2021/03/25 10:06:56;;;;;;;9.32;4.05;;;;;;;;;;5036352;28;20106;-54
2021/03/25 10:09:52;;;;;;;0.82;0.82;;;;;;;;;;5033314;28;20399;-54
2021/03/25 10:12:36;;;;;;;13.88;5.50;;;;;;;;;;5035353;28;20044;-54
2021/03/25 10:15:22;;;;;;;3.15;1.92;;;;;;;;;;5033497;28;20052;-54
2021/03/25 10:17:48;;;;;;;7.07;3.08;;;;;;;;;;5041075;28;20112;-54
2021/03/25 10:20:34;;;;;;;2.55;2.00;;;;;;;;;;5053010;28;20049;-54
2021/03/25 10:23:00;;;;;;;1.20;0.90;;;;;;;;;;5051857;28;20048;-54
2021/03/25 10:25:28;;;;;;;9.90;4.03;;;;;;;;;;5053005;28;20068;-54
2021/03/25 10:27:58;;;;;;;2.90;2.20;;;;;;;;;;5053064;28;20401;-54
2021/03/25 10:30:28;;;;;;;0.60;0.60;;;;;;;;;;5053462;28;20029;-54
2021/03/25 10:32:55;;;;;;;1.80;1.20;;;;;;;;;;5041919;28;20079;-54
2021/03/25 10:35:23;;;;;;;0.82;0.80;;;;;;;;;;5041587;28;20055;-54
2021/03/25 10:37:51;;;;;;;0.63;0.55;;;;;;;;;;5051740;28;20462;-54
2021/03/25 10:40:33;;;;;;;7.90;2.42;;;;;;;;;;5051405;28;20294;-54
2021/03/25 10:42:59;;;;;;;3.25;1.83;;;;;;;;;;5050129;28;20041;-54
2021/03/25 10:45:58;;;;;;;4.38;2.50;;;;;;;;;;5050651;28;20489;-54
2021/03/25 10:48:33;;;;;;;2.08;1.27;;;;;;;;;;5049827;28;20466;-54
2021/03/25 10:51:05;;;;;;;10.48;3.67;;;;;;;;;;5050354;28;20340;-54
2021/03/25 10:53:33;;;;;;;11.10;2.38;;;;;;;;;;5043582;28;20116;-54
2021/03/25 10:56:14;;;;;;;8.70;3.40;;;;;;;;;;5049925;28;20071;-54
2021/03/25 10:58:42;;;;;;;6.13;2.88;;;;;;;;;;5049854;28;20128;-54
2021/03/25 11:01:14;;;;;;;5.65;2.72;;;;;;;;;;5051651;28;20057;-54
2021/03/25 11:03:40;;;;;;;1.45;0.90;;;;;;;;;;5046114;28;20053;-54
2021/03/25 11:06:07;;;;;;;0.73;0.73;;;;;;;;;;5058701;28;20033;-55
2021/03/25 11:08:40;;;;;;;8.35;3.20;;;;;;;;;;5053788;28;20037;-54
2021/03/25 11:11:13;;;;;;;5.97;3.28;;;;;;;;;;5052901;28;20115;-54
2021/03/25 11:13:40;;;;;;;2.13;1.48;;;;;;;;;;5053476;28;20032;-54
2021/03/25 11:16:14;;;;;;;11.20;3.15;;;;;;;;;;5047976;28;20072;-54
2021/03/25 11:18:52;;;;;;;13.98;4.18;;;;;;;;;;5053917;28;20029;-54
2021/03/25 11:21:26;;;;;;;1.65;1.13;;;;;;;;;;5053627;28;20029;-54
2021/03/25 11:24:13;;;;;;;18.30;5.20;;;;;;;;;;5040861;28;20075;-54
2021/03/25 11:26:40;;;;;;;3.25;1.55;;;;;;;;;;5036657;28;20108;-54
2021/03/25 11:29:09;;;;;;;14.68;4.60;;;;;;;;;;5036115;28;20024;-54
2021/03/25 11:31:36;;;;;;;6.88;3.03;;;;;;;;;;5039443;28;20028;-54
2021/03/25 11:34:03;;;;;;;7.15;3.25;;;;;;;;;;5054952;28;20036;-54
2021/03/25 11:36:44;;;;;;;6.90;3.20;;;;;;;;;;5036519;28;20033;-54
2021/03/25 11:39:10;;;;;;;5.53;2.33;;;;;;;;;;5036014;28;20466;-54
2021/03/25 11:41:36;;;;;;;1.60;1.50;;;;;;;;;;5035950;28;20025;-54
2021/03/25 11:44:05;;;;;;;2.28;0.98;;;;;;;;;;5034413;28;20037;-54
2021/03/25 11:46:31;;;;;;;1.95;0.60;;;;;;;;;;5037153;28;20459;-54
2021/03/25 11:49:01;;;;;;;0.50;0.50;;;;;;;;;;5041460;28;20021;-54
2021/03/25 11:51:28;;;;;;;1.42;1.10;;;;;;;;;;5043601;28;20057;-54
2021/03/25 11:53:55;;;;;;;2.35;1.63;;;;;;;;;;5038366;28;20452;-55
2021/03/25 11:56:41;;;;;;;8.63;4.30;;;;;;;;;;5049431;28;20029;-55
2021/03/25 11:59:13;;;;;;;1.45;1.25;;;;;;;;;;5055616;28;20111;-54
2021/03/25 12:01:40;;;;;;;9.68;4.63;;;;;;;;;;5055743;28;20071;-54
2021/03/25 12:04:23;;;;;;;6.65;3.10;;;;;;;;;;5050710;28;20033;-54
2021/03/25 12:07:03;;;;;;;4.85;2.85;;;;;;;;;;5038032;28;20029;-54
2021/03/25 12:09:30;;;;;;;7.70;3.50;;;;;;;;;;5035754;28;20029;-54
2021/03/25 12:11:56;;;;;;;5.10;2.72;;;;;;;;;;5035128;28;20026;-55
2021/03/25 12:14:24;;;;;;;10.27;4.07;;;;;;;;;;5046252;28;20044;-54
2021/03/25 12:16:53;;;;;;;3.15;1.45;;;;;;;;;;5035456;28;20066;-54
2021/03/25 12:19:19;;;;;;;4.28;2.15;;;;;;;;;;5035075;28;20071;-54
2021/03/25 12:21:46;;;;;;;0.75;0.52;;;;;;;;;;5035381;28;20026;-54
2021/03/25 12:24:12;;;;;;;6.03;2.10;;;;;;;;;;5050094;28;20079;-54
2021/03/25 12:26:38;;;;;;;10.98;4.18;;;;;;;;;;5055444;28;20082;-54
2021/03/25 12:29:05;;;;;;;9.55;1.83;;;;;;;;;;5054518;28;20029;-55
2021/03/25 12:31:42;;;;;;;5.97;2.55;;;;;;;;;;5055413;28;20051;-55
2021/03/25 12:34:08;;;;;;;6.60;2.78;;;;;;;;;;5053315;28;20036;-54
2021/03/25 12:36:35;;;;;;;8.27;2.58;;;;;;;;;;5055224;28;20021;-54
2021/03/25 12:39:02;;;;;;;10.02;2.75;;;;;;;;;;5053808;28;20358;-54
2021/03/25 12:41:32;;;;;;;3.67;1.88;;;;;;;;;;5055253;28;20033;-54
2021/03/25 12:43:58;;;;;;;9.68;3.67;;;;;;;;;;5053175;28;20037;-54
2021/03/25 12:46:24;;;;;;;7.97;4.00;;;;;;;;;;5054138;28;20108;-54
2021/03/25 12:48:50;;;;;;;5.80;2.30;;;;;;;;;;5054677;28;20020;-54
2021/03/25 12:51:16;;;;;;;11.18;3.55;;;;;;;;;;5054814;28;20021;-54
2021/03/25 12:53:44;;;;;;;1.50;1.17;;;;;;;;;;5043742;28;20032;-54
2021/03/25 12:56:19;;;;;;;0.82;0.82;;;;;;;;;;5035662;28;20029;-54
2021/03/25 12:58:45;;;;;;;1.00;0.70;;;;;;;;;;5044405;28;20063;-54
2021/03/25 13:01:16;;;;;;;8.38;3.17;;;;;;;;;;5043826;28;20429;-54
2021/03/25 13:03:44;;;;;;;8.20;3.50;;;;;;;;;;5046588;28;20033;-55
2021/03/25 13:06:11;;;;;;;5.25;2.75;;;;;;;;;;5046844;28;20135;-54
2021/03/25 13:08:37;;;;;;;5.60;2.70;;;;;;;;;;5053141;28;20336;-54
2021/03/25 13:11:03;;;;;;;6.32;2.60;;;;;;;;;;5053466;28;20052;-54
2021/03/25 13:13:29;;;;;;;1.13;1.05;;;;;;;;;;5053437;28;20017;-54
2021/03/25 13:15:55;;;;;;;7.97;3.58;;;;;;;;;;5052449;28;20083;-54
2021/03/25 13:18:22;;;;;;;8.25;3.50;;;;;;;;;;5045263;28;20037;-54
2021/03/25 13:20:48;;;;;;;7.93;2.42;;;;;;;;;;5044813;28;20025;-54
2021/03/25 13:23:14;;;;;;;10.25;4.18;;;;;;;;;;5053334;28;20079;-53
2021/03/25 13:25:41;;;;;;;2.25;0.47;;;;;;;;;;5052188;28;20041;-53
2021/03/25 13:28:08;;;;;;;7.68;3.50;;;;;;;;;;5046182;28;20486;-54
2021/03/25 13:30:35;;;;;;;8.32;3.53;;;;;;;;;;5050649;28;20029;-53
2021/03/25 13:33:01;;;;;;;5.43;2.90;;;;;;;;;;5045566;28;20037;-53
2021/03/25 13:35:27;;;;;;;10.30;3.60;;;;;;;;;;5051170;28;20025;-54
2021/03/25 13:37:55;;;;;;;7.55;3.03;;;;;;;;;;5045738;28;20025;-53
2021/03/25 13:40:22;;;;;;;11.63;3.00;;;;;;;;;;5053219;28;20336;-54
2021/03/25 13:42:48;;;;;;;5.25;1.30;;;;;;;;;;5050055;28;20025;-54
2021/03/25 13:45:14;;;;;;;3.25;2.00;;;;;;;;;;5046948;28;20044;-54
2021/03/25 13:47:41;;;;;;;1.00;0.75;;;;;;;;;;5044155;28;20474;-54
2021/03/25 13:50:08;;;;;;;4.38;2.58;;;;;;;;;;5046541;28;20029;-53
2021/03/25 13:52:34;;;;;;;5.53;2.22;;;;;;;;;;5048084;28;20457;-53
2021/03/25 13:55:00;;;;;;;6.07;2.08;;;;;;;;;;5052662;28;20025;-53
2021/03/25 13:57:26;;;;;;;6.10;2.90;;;;;;;;;;5042158;28;20144;-54
2021/03/25 13:59:52;;;;;;;10.00;3.08;;;;;;;;;;5039947;28;20125;-53
2021/03/25 14:02:18;;;;;;;6.60;3.15;;;;;;;;;;5052615;28;20450;-53
2021/03/25 14:04:46;;;;;;;4.32;2.60;;;;;;;;;;5040421;28;20111;-54
2021/03/25 14:07:12;;;;;;;8.20;3.25;;;;;;;;;;5052015;28;20032;-53
2021/03/25 14:09:39;;;;;;;8.85;2.95;;;;;;;;;;5046983;28;20116;-54
2021/03/25 14:12:05;;;;;;;2.15;0.70;;;;;;;;;;5039009;28;20482;-53
2021/03/25 14:14:31;;;;;;;4.65;1.58;;;;;;;;;;5042410;28;20035;-54
2021/03/25 14:16:57;;;;;;;12.20;3.45;;;;;;;;;;5043512;28;20017;-54
2021/03/25 14:19:23;;;;;;;4.50;2.65;;;;;;;;;;5041647;28;20025;-53
2021/03/25 14:21:49;;;;;;;9.05;2.60;;;;;;;;;;5043438;28;20025;-54
2021/03/25 14:24:15;;;;;;;4.88;3.15;;;;;;;;;;5035830;28;20296;-53
2021/03/25 14:26:41;;;;;;;6.63;2.42;;;;;;;;;;5033079;28;20553;-53
2021/03/25 14:29:07;;;;;;;7.57;3.28;;;;;;;;;;5032900;28;20022;-53
2021/03/25 14:31:33;;;;;;;7.38;3.30;;;;;;;;;;5043766;28;20033;-54
2021/03/25 14:34:00;;;;;;;7.20;3.45;;;;;;;;;;5052538;28;20029;-53
2021/03/25 14:36:27;;;;;;;10.38;2.85;;;;;;;;;;5051913;28;20044;-53
2021/03/25 14:38:53;;;;;;;6.93;3.05;;;;;;;;;;5041097;28;20512;-54
2021/03/25 14:41:19;;;;;;;6.82;2.72;;;;;;;;;;5042509;28;20104;-53
2021/03/25 14:43:45;;;;;;;11.23;3.75;;;;;;;;;;5047018;28;20047;-53
2021/03/25 14:46:12;;;;;;;6.90;2.85;;;;;;;;;;5052470;28;20068;-54
2021/03/25 14:48:39;;;;;;;6.32;2.47;;;;;;;;;;5052575;28;20040;-54
2021/03/25 14:51:08;;;;;;;9.15;2.85;;;;;;;;;;5037656;28;20079;-54
2021/03/25 14:53:36;;;;;;;7.65;3.17;;;;;;;;;;5040718;28;20021;-53
2021/03/25 14:56:02;;;;;;;7.72;2.63;;;;;;;;;;5052586;28;20112;-54